sensor_id;sensor_type;location;lat;lon;timestamp;P1;durP1;ratioP1;P2;durP2;ratioP2
60726;SDS011;46577;49.004;12.120;2023-09-08T00:01:20;10.47;;;7.07;;
60726;SDS011;46577;49.004;12.120;2023-09-08T00:03:46;11.70;;;7.10;;
60726;SDS011;46577;49.004;12.120;2023-09-08T00:06:12;7.90;;;6.77;;
60726;SDS011;46577;49.004;12.120;2023-09-08T00:08:38;8.73;;;7.20;;
60726;SDS011;46577;49.004;12.120;2023-09-08T00:11:04;7.90;;;6.27;;
60726;SDS011;46577;49.004;12.120;2023-09-08T00:13:32;15.20;;;6.57;;
60726;SDS011;46577;49.004;12.120;2023-09-08T00:15:58;12.40;;;7.10;;
60726;SDS011;46577;49.004;12.120;2023-09-08T00:18:24;9.87;;;6.80;;
60726;SDS011;46577;49.004;12.120;2023-09-08T00:20:50;8.03;;;6.27;;
60726;SDS011;46577;49.004;12.120;2023-09-08T00:23:16;9.67;;;6.83;;
60726;SDS011;46577;49.004;12.120;2023-09-08T00:25:42;8.53;;;6.07;;
60726;SDS011;46577;49.004;12.120;2023-09-08T00:28:08;9.33;;;7.10;;
60726;SDS011;46577;49.004;12.120;2023-09-08T00:30:34;14.37;;;6.90;;
60726;SDS011;46577;49.004;12.120;2023-09-08T00:33:00;13.27;;;7.10;;
60726;SDS011;46577;49.004;12.120;2023-09-08T00:35:25;10.93;;;7.40;;
60726;SDS011;46577;49.004;12.120;2023-09-08T00:37:52;11.17;;;7.00;;
60726;SDS011;46577;49.004;12.120;2023-09-08T00:40:18;15.87;;;6.83;;
60726;SDS011;46577;49.004;12.120;2023-09-08T00:42:44;13.40;;;7.13;;
60726;SDS011;46577;49.004;12.120;2023-09-08T00:45:10;10.47;;;6.97;;
60726;SDS011;46577;49.004;12.120;2023-09-08T00:47:36;11.50;;;8.00;;
60726;SDS011;46577;49.004;12.120;2023-09-08T00:50:05;9.43;;;7.10;;
60726;SDS011;46577;49.004;12.120;2023-09-08T00:52:31;9.50;;;7.17;;
60726;SDS011;46577;49.004;12.120;2023-09-08T00:54:58;16.60;;;7.87;;
60726;SDS011;46577;49.004;12.120;2023-09-08T00:57:24;8.40;;;6.90;;
60726;SDS011;46577;49.004;12.120;2023-09-08T00:59:51;12.20;;;7.50;;
60726;SDS011;46577;49.004;12.120;2023-09-08T01:02:17;8.40;;;7.53;;
60726;SDS011;46577;49.004;12.120;2023-09-08T01:04:43;10.23;;;6.70;;
60726;SDS011;46577;49.004;12.120;2023-09-08T01:07:10;8.70;;;7.40;;
60726;SDS011;46577;49.004;12.120;2023-09-08T01:09:36;12.63;;;7.67;;
60726;SDS011;46577;49.004;12.120;2023-09-08T01:12:03;8.70;;;7.03;;
60726;SDS011;46577;49.004;12.120;2023-09-08T01:14:29;10.33;;;6.80;;
60726;SDS011;46577;49.004;12.120;2023-09-08T01:16:56;7.80;;;6.63;;
60726;SDS011;46577;49.004;12.120;2023-09-08T01:19:21;10.53;;;7.77;;
60726;SDS011;46577;49.004;12.120;2023-09-08T01:22:11;8.63;;;7.40;;
60726;SDS011;46577;49.004;12.120;2023-09-08T01:27:07;17.67;;;7.13;;
60726;SDS011;46577;49.004;12.120;2023-09-08T01:29:33;8.83;;;7.33;;
60726;SDS011;46577;49.004;12.120;2023-09-08T01:31:59;17.93;;;7.43;;
60726;SDS011;46577;49.004;12.120;2023-09-08T01:34:25;11.13;;;7.17;;
60726;SDS011;46577;49.004;12.120;2023-09-08T01:36:51;13.20;;;8.07;;
60726;SDS011;46577;49.004;12.120;2023-09-08T01:39:18;15.77;;;7.40;;
60726;SDS011;46577;49.004;12.120;2023-09-08T01:41:44;8.97;;;6.90;;
60726;SDS011;46577;49.004;12.120;2023-09-08T01:44:10;10.97;;;7.50;;
60726;SDS011;46577;49.004;12.120;2023-09-08T01:46:37;9.33;;;7.30;;
60726;SDS011;46577;49.004;12.120;2023-09-08T01:49:04;10.80;;;7.60;;
60726;SDS011;46577;49.004;12.120;2023-09-08T01:51:30;13.33;;;7.93;;
60726;SDS011;46577;49.004;12.120;2023-09-08T01:53:56;9.57;;;7.10;;
60726;SDS011;46577;49.004;12.120;2023-09-08T01:56:22;16.37;;;6.87;;
60726;SDS011;46577;49.004;12.120;2023-09-08T01:58:48;10.23;;;6.57;;
60726;SDS011;46577;49.004;12.120;2023-09-08T02:01:14;10.67;;;7.37;;
60726;SDS011;46577;49.004;12.120;2023-09-08T02:03:40;7.70;;;6.43;;
60726;SDS011;46577;49.004;12.120;2023-09-08T02:06:05;10.03;;;7.47;;
60726;SDS011;46577;49.004;12.120;2023-09-08T02:08:31;11.33;;;7.27;;
60726;SDS011;46577;49.004;12.120;2023-09-08T02:10:57;15.33;;;7.37;;
60726;SDS011;46577;49.004;12.120;2023-09-08T02:13:23;10.00;;;7.50;;
60726;SDS011;46577;49.004;12.120;2023-09-08T02:15:49;9.17;;;7.40;;
60726;SDS011;46577;49.004;12.120;2023-09-08T02:18:16;8.47;;;7.03;;
60726;SDS011;46577;49.004;12.120;2023-09-08T02:20:42;11.70;;;8.23;;
60726;SDS011;46577;49.004;12.120;2023-09-08T02:23:08;11.60;;;7.43;;
60726;SDS011;46577;49.004;12.120;2023-09-08T02:25:34;11.20;;;8.33;;
60726;SDS011;46577;49.004;12.120;2023-09-08T02:28:00;8.80;;;7.30;;
60726;SDS011;46577;49.004;12.120;2023-09-08T02:30:26;8.90;;;7.40;;
60726;SDS011;46577;49.004;12.120;2023-09-08T02:32:52;10.00;;;7.40;;
60726;SDS011;46577;49.004;12.120;2023-09-08T02:35:20;10.43;;;7.10;;
60726;SDS011;46577;49.004;12.120;2023-09-08T02:37:46;10.83;;;8.17;;
60726;SDS011;46577;49.004;12.120;2023-09-08T02:40:12;24.47;;;8.10;;
60726;SDS011;46577;49.004;12.120;2023-09-08T02:42:38;12.80;;;7.57;;
60726;SDS011;46577;49.004;12.120;2023-09-08T02:45:04;11.90;;;7.40;;
60726;SDS011;46577;49.004;12.120;2023-09-08T02:47:30;15.40;;;7.83;;
60726;SDS011;46577;49.004;12.120;2023-09-08T02:49:56;9.00;;;7.00;;
60726;SDS011;46577;49.004;12.120;2023-09-08T02:52:22;12.73;;;7.90;;
60726;SDS011;46577;49.004;12.120;2023-09-08T02:54:48;10.70;;;8.27;;
60726;SDS011;46577;49.004;12.120;2023-09-08T02:57:14;10.20;;;7.33;;
60726;SDS011;46577;49.004;12.120;2023-09-08T02:59:40;11.13;;;7.70;;
60726;SDS011;46577;49.004;12.120;2023-09-08T03:02:06;8.50;;;7.27;;
60726;SDS011;46577;49.004;12.120;2023-09-08T03:04:32;12.00;;;7.90;;
60726;SDS011;46577;49.004;12.120;2023-09-08T03:06:57;13.70;;;8.47;;
60726;SDS011;46577;49.004;12.120;2023-09-08T03:09:23;9.20;;;7.43;;
60726;SDS011;46577;49.004;12.120;2023-09-08T03:11:49;14.93;;;8.13;;
60726;SDS011;46577;49.004;12.120;2023-09-08T03:14:15;9.87;;;7.80;;
60726;SDS011;46577;49.004;12.120;2023-09-08T03:16:41;10.10;;;7.93;;
60726;SDS011;46577;49.004;12.120;2023-09-08T03:19:07;17.00;;;7.73;;
60726;SDS011;46577;49.004;12.120;2023-09-08T03:21:33;12.90;;;8.60;;
60726;SDS011;46577;49.004;12.120;2023-09-08T03:23:59;11.30;;;8.40;;
60726;SDS011;46577;49.004;12.120;2023-09-08T03:26:25;11.00;;;8.40;;
60726;SDS011;46577;49.004;12.120;2023-09-08T03:28:51;10.67;;;8.73;;
60726;SDS011;46577;49.004;12.120;2023-09-08T03:31:17;10.03;;;7.40;;
60726;SDS011;46577;49.004;12.120;2023-09-08T03:33:43;11.20;;;8.43;;
60726;SDS011;46577;49.004;12.120;2023-09-08T03:36:09;10.00;;;7.53;;
60726;SDS011;46577;49.004;12.120;2023-09-08T03:38:35;16.50;;;8.80;;
60726;SDS011;46577;49.004;12.120;2023-09-08T03:41:02;9.77;;;7.57;;
60726;SDS011;46577;49.004;12.120;2023-09-08T03:43:28;9.70;;;7.70;;
60726;SDS011;46577;49.004;12.120;2023-09-08T03:45:55;12.60;;;7.63;;
60726;SDS011;46577;49.004;12.120;2023-09-08T03:48:21;13.00;;;8.13;;
60726;SDS011;46577;49.004;12.120;2023-09-08T03:50:47;20.40;;;9.00;;
60726;SDS011;46577;49.004;12.120;2023-09-08T03:53:13;11.10;;;8.63;;
60726;SDS011;46577;49.004;12.120;2023-09-08T03:55:39;9.27;;;7.87;;
60726;SDS011;46577;49.004;12.120;2023-09-08T03:58:05;26.20;;;8.20;;
60726;SDS011;46577;49.004;12.120;2023-09-08T04:00:31;11.50;;;7.90;;
60726;SDS011;46577;49.004;12.120;2023-09-08T04:02:57;9.50;;;8.10;;
60726;SDS011;46577;49.004;12.120;2023-09-08T04:05:23;13.93;;;9.20;;
60726;SDS011;46577;49.004;12.120;2023-09-08T04:07:49;11.70;;;8.47;;
60726;SDS011;46577;49.004;12.120;2023-09-08T04:10:15;11.93;;;8.20;;
60726;SDS011;46577;49.004;12.120;2023-09-08T04:12:41;9.63;;;8.60;;
60726;SDS011;46577;49.004;12.120;2023-09-08T04:15:08;16.43;;;8.77;;
60726;SDS011;46577;49.004;12.120;2023-09-08T04:17:34;13.27;;;9.10;;
60726;SDS011;46577;49.004;12.120;2023-09-08T04:20:01;11.93;;;7.63;;
60726;SDS011;46577;49.004;12.120;2023-09-08T04:22:29;12.80;;;8.40;;
60726;SDS011;46577;49.004;12.120;2023-09-08T04:24:55;11.83;;;9.40;;
60726;SDS011;46577;49.004;12.120;2023-09-08T04:27:22;11.00;;;8.47;;
60726;SDS011;46577;49.004;12.120;2023-09-08T04:29:48;10.53;;;8.83;;
60726;SDS011;46577;49.004;12.120;2023-09-08T04:32:14;11.60;;;8.50;;
60726;SDS011;46577;49.004;12.120;2023-09-08T04:34:41;14.83;;;9.43;;
60726;SDS011;46577;49.004;12.120;2023-09-08T04:37:07;15.30;;;9.47;;
60726;SDS011;46577;49.004;12.120;2023-09-08T04:39:33;10.07;;;8.70;;
60726;SDS011;46577;49.004;12.120;2023-09-08T04:41:59;16.03;;;10.37;;
60726;SDS011;46577;49.004;12.120;2023-09-08T04:44:26;12.00;;;8.67;;
60726;SDS011;46577;49.004;12.120;2023-09-08T04:46:52;12.80;;;9.90;;
60726;SDS011;46577;49.004;12.120;2023-09-08T04:49:18;12.43;;;8.73;;
60726;SDS011;46577;49.004;12.120;2023-09-08T04:51:44;19.10;;;10.23;;
60726;SDS011;46577;49.004;12.120;2023-09-08T04:54:10;15.17;;;10.30;;
60726;SDS011;46577;49.004;12.120;2023-09-08T04:56:38;16.70;;;9.40;;
60726;SDS011;46577;49.004;12.120;2023-09-08T04:59:04;15.97;;;8.70;;
60726;SDS011;46577;49.004;12.120;2023-09-08T05:01:30;12.30;;;8.47;;
60726;SDS011;46577;49.004;12.120;2023-09-08T05:03:57;13.73;;;9.67;;
60726;SDS011;46577;49.004;12.120;2023-09-08T05:06:24;13.33;;;9.70;;
60726;SDS011;46577;49.004;12.120;2023-09-08T05:08:50;11.57;;;8.73;;
60726;SDS011;46577;49.004;12.120;2023-09-08T05:11:16;11.40;;;8.40;;
60726;SDS011;46577;49.004;12.120;2023-09-08T05:13:44;14.63;;;10.10;;
60726;SDS011;46577;49.004;12.120;2023-09-08T05:16:10;17.73;;;9.33;;
60726;SDS011;46577;49.004;12.120;2023-09-08T05:18:37;12.73;;;8.30;;
60726;SDS011;46577;49.004;12.120;2023-09-08T05:21:03;19.30;;;8.60;;
60726;SDS011;46577;49.004;12.120;2023-09-08T05:23:29;12.80;;;8.83;;
60726;SDS011;46577;49.004;12.120;2023-09-08T05:25:55;11.37;;;8.20;;
60726;SDS011;46577;49.004;12.120;2023-09-08T05:28:21;9.10;;;6.90;;
60726;SDS011;46577;49.004;12.120;2023-09-08T05:30:47;12.23;;;6.97;;
60726;SDS011;46577;49.004;12.120;2023-09-08T05:33:16;12.50;;;6.40;;
60726;SDS011;46577;49.004;12.120;2023-09-08T05:35:42;9.33;;;6.63;;
60726;SDS011;46577;49.004;12.120;2023-09-08T05:38:08;14.60;;;6.33;;
60726;SDS011;46577;49.004;12.120;2023-09-08T05:40:34;11.37;;;6.03;;
60726;SDS011;46577;49.004;12.120;2023-09-08T05:43:00;19.40;;;6.70;;
60726;SDS011;46577;49.004;12.120;2023-09-08T05:45:27;11.37;;;5.60;;
60726;SDS011;46577;49.004;12.120;2023-09-08T05:47:53;9.70;;;5.60;;
60726;SDS011;46577;49.004;12.120;2023-09-08T05:50:19;6.50;;;5.37;;
60726;SDS011;46577;49.004;12.120;2023-09-08T05:52:45;10.20;;;4.80;;
60726;SDS011;46577;49.004;12.120;2023-09-08T05:55:11;7.40;;;4.57;;
60726;SDS011;46577;49.004;12.120;2023-09-08T05:57:37;10.80;;;5.47;;
60726;SDS011;46577;49.004;12.120;2023-09-08T06:00:03;8.77;;;5.00;;
60726;SDS011;46577;49.004;12.120;2023-09-08T06:02:29;7.10;;;4.53;;
60726;SDS011;46577;49.004;12.120;2023-09-08T06:04:55;7.77;;;5.10;;
60726;SDS011;46577;49.004;12.120;2023-09-08T06:07:21;6.30;;;5.33;;
60726;SDS011;46577;49.004;12.120;2023-09-08T06:09:47;7.63;;;5.40;;
60726;SDS011;46577;49.004;12.120;2023-09-08T06:12:13;11.73;;;4.50;;
60726;SDS011;46577;49.004;12.120;2023-09-08T06:14:39;6.33;;;4.90;;
60726;SDS011;46577;49.004;12.120;2023-09-08T06:17:05;9.60;;;5.53;;
60726;SDS011;46577;49.004;12.120;2023-09-08T06:19:31;7.80;;;4.80;;
60726;SDS011;46577;49.004;12.120;2023-09-08T06:21:57;6.20;;;4.60;;
60726;SDS011;46577;49.004;12.120;2023-09-08T06:24:23;8.27;;;5.20;;
60726;SDS011;46577;49.004;12.120;2023-09-08T06:26:49;6.83;;;5.20;;
60726;SDS011;46577;49.004;12.120;2023-09-08T06:29:15;7.40;;;5.53;;
60726;SDS011;46577;49.004;12.120;2023-09-08T06:31:41;5.90;;;4.97;;
60726;SDS011;46577;49.004;12.120;2023-09-08T06:34:07;9.10;;;5.30;;
60726;SDS011;46577;49.004;12.120;2023-09-08T06:36:33;8.13;;;4.93;;
60726;SDS011;46577;49.004;12.120;2023-09-08T06:38:59;5.83;;;4.63;;
60726;SDS011;46577;49.004;12.120;2023-09-08T06:41:25;9.37;;;4.57;;
60726;SDS011;46577;49.004;12.120;2023-09-08T06:43:52;4.93;;;4.40;;
60726;SDS011;46577;49.004;12.120;2023-09-08T06:46:18;8.10;;;4.43;;
60726;SDS011;46577;49.004;12.120;2023-09-08T06:48:44;9.23;;;4.13;;
60726;SDS011;46577;49.004;12.120;2023-09-08T06:51:10;4.93;;;4.27;;
60726;SDS011;46577;49.004;12.120;2023-09-08T06:53:36;5.93;;;4.40;;
60726;SDS011;46577;49.004;12.120;2023-09-08T06:56:02;5.10;;;3.70;;
60726;SDS011;46577;49.004;12.120;2023-09-08T06:58:28;4.17;;;3.77;;
60726;SDS011;46577;49.004;12.120;2023-09-08T07:00:54;5.83;;;3.67;;
60726;SDS011;46577;49.004;12.120;2023-09-08T07:03:20;4.13;;;3.27;;
60726;SDS011;46577;49.004;12.120;2023-09-08T07:05:51;5.82;;;3.35;;
60726;SDS011;46577;49.004;12.120;2023-09-08T07:08:17;5.40;;;3.00;;
60726;SDS011;46577;49.004;12.120;2023-09-08T07:10:43;4.07;;;2.88;;
60726;SDS011;46577;49.004;12.120;2023-09-08T07:13:09;3.53;;;3.22;;
60726;SDS011;46577;49.004;12.120;2023-09-08T07:15:35;3.13;;;2.92;;
60726;SDS011;46577;49.004;12.120;2023-09-08T07:18:01;5.60;;;3.42;;
60726;SDS011;46577;49.004;12.120;2023-09-08T07:20:27;2.65;;;2.45;;
60726;SDS011;46577;49.004;12.120;2023-09-08T07:22:53;3.60;;;3.30;;
60726;SDS011;46577;49.004;12.120;2023-09-08T07:25:19;5.35;;;2.90;;
60726;SDS011;46577;49.004;12.120;2023-09-08T07:27:45;6.57;;;3.00;;
60726;SDS011;46577;49.004;12.120;2023-09-08T07:30:11;3.25;;;2.70;;
60726;SDS011;46577;49.004;12.120;2023-09-08T07:32:37;3.45;;;2.88;;
60726;SDS011;46577;49.004;12.120;2023-09-08T07:35:04;4.80;;;2.67;;
60726;SDS011;46577;49.004;12.120;2023-09-08T07:37:30;4.75;;;2.67;;
60726;SDS011;46577;49.004;12.120;2023-09-08T07:39:56;5.55;;;2.85;;
60726;SDS011;46577;49.004;12.120;2023-09-08T07:42:23;2.85;;;2.42;;
60726;SDS011;46577;49.004;12.120;2023-09-08T07:44:50;3.45;;;3.10;;
60726;SDS011;46577;49.004;12.120;2023-09-08T07:47:16;5.07;;;2.60;;
60726;SDS011;46577;49.004;12.120;2023-09-08T07:49:44;3.90;;;2.55;;
60726;SDS011;46577;49.004;12.120;2023-09-08T07:52:11;6.90;;;3.03;;
60726;SDS011;46577;49.004;12.120;2023-09-08T07:54:37;3.10;;;2.42;;
60726;SDS011;46577;49.004;12.120;2023-09-08T07:57:03;3.63;;;2.47;;
60726;SDS011;46577;49.004;12.120;2023-09-08T07:59:29;4.35;;;2.40;;
60726;SDS011;46577;49.004;12.120;2023-09-08T08:01:55;4.15;;;2.60;;
60726;SDS011;46577;49.004;12.120;2023-09-08T08:04:21;7.30;;;2.90;;
60726;SDS011;46577;49.004;12.120;2023-09-08T08:06:47;8.27;;;2.83;;
60726;SDS011;46577;49.004;12.120;2023-09-08T08:09:14;9.70;;;2.55;;
60726;SDS011;46577;49.004;12.120;2023-09-08T08:11:40;5.57;;;2.38;;
60726;SDS011;46577;49.004;12.120;2023-09-08T08:14:06;7.45;;;3.20;;
60726;SDS011;46577;49.004;12.120;2023-09-08T08:16:32;7.38;;;2.28;;
60726;SDS011;46577;49.004;12.120;2023-09-08T08:18:58;9.65;;;2.55;;
60726;SDS011;46577;49.004;12.120;2023-09-08T08:21:24;10.90;;;2.35;;
60726;SDS011;46577;49.004;12.120;2023-09-08T08:23:50;3.42;;;2.53;;
60726;SDS011;46577;49.004;12.120;2023-09-08T08:26:16;5.35;;;2.42;;
60726;SDS011;46577;49.004;12.120;2023-09-08T08:28:43;3.80;;;2.33;;
60726;SDS011;46577;49.004;12.120;2023-09-08T08:31:09;7.03;;;2.95;;
60726;SDS011;46577;49.004;12.120;2023-09-08T08:33:35;3.67;;;2.50;;
60726;SDS011;46577;49.004;12.120;2023-09-08T08:36:01;5.47;;;3.30;;
60726;SDS011;46577;49.004;12.120;2023-09-08T08:38:28;5.97;;;2.88;;
60726;SDS011;46577;49.004;12.120;2023-09-08T08:40:54;3.85;;;2.72;;
60726;SDS011;46577;49.004;12.120;2023-09-08T08:43:20;3.05;;;2.33;;
60726;SDS011;46577;49.004;12.120;2023-09-08T08:45:47;4.45;;;2.45;;
60726;SDS011;46577;49.004;12.120;2023-09-08T08:48:14;3.47;;;2.50;;
60726;SDS011;46577;49.004;12.120;2023-09-08T08:50:41;4.70;;;2.70;;
60726;SDS011;46577;49.004;12.120;2023-09-08T08:53:08;4.70;;;2.75;;
60726;SDS011;46577;49.004;12.120;2023-09-08T08:55:34;2.97;;;2.47;;
60726;SDS011;46577;49.004;12.120;2023-09-08T08:58:01;13.88;;;2.95;;
60726;SDS011;46577;49.004;12.120;2023-09-08T09:00:28;5.78;;;2.85;;
60726;SDS011;46577;49.004;12.120;2023-09-08T09:02:55;2.67;;;2.17;;
60726;SDS011;46577;49.004;12.120;2023-09-08T09:05:21;3.35;;;2.45;;
60726;SDS011;46577;49.004;12.120;2023-09-08T09:07:47;5.22;;;2.38;;
60726;SDS011;46577;49.004;12.120;2023-09-08T09:10:13;3.08;;;2.13;;
60726;SDS011;46577;49.004;12.120;2023-09-08T09:12:40;2.90;;;2.70;;
60726;SDS011;46577;49.004;12.120;2023-09-08T09:15:06;2.67;;;2.47;;
60726;SDS011;46577;49.004;12.120;2023-09-08T09:17:33;2.75;;;2.55;;
60726;SDS011;46577;49.004;12.120;2023-09-08T09:22:58;3.33;;;2.70;;
60726;SDS011;46577;49.004;12.120;2023-09-08T09:25:25;2.83;;;2.63;;
60726;SDS011;46577;49.004;12.120;2023-09-08T09:27:55;3.33;;;2.55;;
60726;SDS011;46577;49.004;12.120;2023-09-08T09:30:21;3.58;;;3.28;;
60726;SDS011;46577;49.004;12.120;2023-09-08T09:32:47;4.63;;;2.25;;
60726;SDS011;46577;49.004;12.120;2023-09-08T09:35:14;3.83;;;3.00;;
60726;SDS011;46577;49.004;12.120;2023-09-08T09:37:41;2.47;;;2.28;;
60726;SDS011;46577;49.004;12.120;2023-09-08T09:40:08;2.83;;;2.47;;
60726;SDS011;46577;49.004;12.120;2023-09-08T09:42:38;3.10;;;2.80;;
60726;SDS011;46577;49.004;12.120;2023-09-08T09:45:05;3.22;;;2.92;;
60726;SDS011;46577;49.004;12.120;2023-09-08T09:47:32;2.95;;;2.75;;
60726;SDS011;46577;49.004;12.120;2023-09-08T09:49:58;3.22;;;2.92;;
60726;SDS011;46577;49.004;12.120;2023-09-08T09:52:24;3.42;;;2.78;;
60726;SDS011;46577;49.004;12.120;2023-09-08T09:54:56;2.40;;;2.17;;
60726;SDS011;46577;49.004;12.120;2023-09-08T09:57:23;3.47;;;3.17;;
60726;SDS011;46577;49.004;12.120;2023-09-08T09:59:49;2.60;;;2.40;;
60726;SDS011;46577;49.004;12.120;2023-09-08T10:02:20;5.57;;;2.42;;
60726;SDS011;46577;49.004;12.120;2023-09-08T10:04:47;3.33;;;2.47;;
60726;SDS011;46577;49.004;12.120;2023-09-08T10:07:14;2.22;;;2.13;;
60726;SDS011;46577;49.004;12.120;2023-09-08T10:09:41;2.83;;;1.90;;
60726;SDS011;46577;49.004;12.120;2023-09-08T10:12:08;2.30;;;2.20;;
60726;SDS011;46577;49.004;12.120;2023-09-08T10:14:38;2.60;;;2.40;;
60726;SDS011;46577;49.004;12.120;2023-09-08T10:17:06;3.25;;;1.83;;
60726;SDS011;46577;49.004;12.120;2023-09-08T10:19:34;2.38;;;2.17;;
60726;SDS011;46577;49.004;12.120;2023-09-08T10:22:06;5.72;;;2.30;;
60726;SDS011;46577;49.004;12.120;2023-09-08T10:24:34;3.40;;;2.35;;
60726;SDS011;46577;49.004;12.120;2023-09-08T10:29:28;3.85;;;2.10;;
60726;SDS011;46577;49.004;12.120;2023-09-08T10:31:55;2.42;;;1.80;;
60726;SDS011;46577;49.004;12.120;2023-09-08T10:34:22;2.20;;;2.00;;
60726;SDS011;46577;49.004;12.120;2023-09-08T10:36:48;2.20;;;2.00;;
60726;SDS011;46577;49.004;12.120;2023-09-08T10:44:41;2.25;;;2.05;;
60726;SDS011;46577;49.004;12.120;2023-09-08T10:47:07;8.07;;;1.85;;
60726;SDS011;46577;49.004;12.120;2023-09-08T10:49:36;1.73;;;1.63;;
60726;SDS011;46577;49.004;12.120;2023-09-08T10:52:05;3.67;;;1.80;;
60726;SDS011;46577;49.004;12.120;2023-09-08T10:54:49;2.67;;;1.75;;
60726;SDS011;46577;49.004;12.120;2023-09-08T10:57:16;2.25;;;1.77;;
60726;SDS011;46577;49.004;12.120;2023-09-08T11:00:01;1.95;;;1.63;;
60726;SDS011;46577;49.004;12.120;2023-09-08T11:02:41;5.40;;;1.60;;
60726;SDS011;46577;49.004;12.120;2023-09-08T11:05:08;4.28;;;1.85;;
60726;SDS011;46577;49.004;12.120;2023-09-08T11:07:35;1.77;;;1.65;;
60726;SDS011;46577;49.004;12.120;2023-09-08T11:10:02;2.78;;;1.88;;
60726;SDS011;46577;49.004;12.120;2023-09-08T11:12:28;3.35;;;2.25;;
60726;SDS011;46577;49.004;12.120;2023-09-08T11:14:54;2.08;;;1.98;;
60726;SDS011;46577;49.004;12.120;2023-09-08T11:17:24;2.33;;;2.00;;
60726;SDS011;46577;49.004;12.120;2023-09-08T11:19:50;3.35;;;2.22;;
60726;SDS011;46577;49.004;12.120;2023-09-08T11:22:16;2.22;;;2.00;;
60726;SDS011;46577;49.004;12.120;2023-09-08T11:24:43;2.50;;;2.30;;
60726;SDS011;46577;49.004;12.120;2023-09-08T11:27:10;2.30;;;2.10;;
60726;SDS011;46577;49.004;12.120;2023-09-08T11:29:36;3.90;;;2.55;;
60726;SDS011;46577;49.004;12.120;2023-09-08T11:32:05;2.75;;;2.55;;
60726;SDS011;46577;49.004;12.120;2023-09-08T11:34:32;2.58;;;2.38;;
60726;SDS011;46577;49.004;12.120;2023-09-08T11:36:58;3.03;;;2.80;;
60726;SDS011;46577;49.004;12.120;2023-09-08T11:39:24;2.55;;;2.35;;
60726;SDS011;46577;49.004;12.120;2023-09-08T11:41:50;2.47;;;2.22;;
60726;SDS011;46577;49.004;12.120;2023-09-08T11:44:17;2.80;;;2.53;;
60726;SDS011;46577;49.004;12.120;2023-09-08T11:46:43;4.32;;;2.80;;
60726;SDS011;46577;49.004;12.120;2023-09-08T11:49:09;2.88;;;2.67;;
60726;SDS011;46577;49.004;12.120;2023-09-08T11:51:35;2.88;;;2.67;;
60726;SDS011;46577;49.004;12.120;2023-09-08T11:54:02;8.85;;;3.28;;
60726;SDS011;46577;49.004;12.120;2023-09-08T11:56:28;7.53;;;3.08;;
60726;SDS011;46577;49.004;12.120;2023-09-08T11:58:54;4.78;;;2.85;;
60726;SDS011;46577;49.004;12.120;2023-09-08T12:01:21;4.10;;;2.92;;
60726;SDS011;46577;49.004;12.120;2023-09-08T12:03:53;4.40;;;3.03;;
60726;SDS011;46577;49.004;12.120;2023-09-08T12:06:20;3.08;;;2.88;;
60726;SDS011;46577;49.004;12.120;2023-09-08T12:08:46;4.00;;;2.63;;
60726;SDS011;46577;49.004;12.120;2023-09-08T12:11:12;3.08;;;2.75;;
60726;SDS011;46577;49.004;12.120;2023-09-08T12:13:37;5.15;;;3.10;;
60726;SDS011;46577;49.004;12.120;2023-09-08T12:16:16;8.77;;;2.92;;
60726;SDS011;46577;49.004;12.120;2023-09-08T12:18:42;5.87;;;3.40;;
60726;SDS011;46577;49.004;12.120;2023-09-08T12:21:10;4.17;;;3.17;;
60726;SDS011;46577;49.004;12.120;2023-09-08T12:23:46;6.13;;;3.97;;
60726;SDS011;46577;49.004;12.120;2023-09-08T12:26:13;8.60;;;4.20;;
60726;SDS011;46577;49.004;12.120;2023-09-08T12:28:41;8.70;;;4.13;;
60726;SDS011;46577;49.004;12.120;2023-09-08T12:31:08;5.00;;;4.50;;
60726;SDS011;46577;49.004;12.120;2023-09-08T12:33:34;4.27;;;3.87;;
60726;SDS011;46577;49.004;12.120;2023-09-08T12:36:06;5.03;;;4.30;;
60726;SDS011;46577;49.004;12.120;2023-09-08T12:38:35;5.40;;;4.00;;
60726;SDS011;46577;49.004;12.120;2023-09-08T12:41:02;4.87;;;4.20;;
60726;SDS011;46577;49.004;12.120;2023-09-08T12:43:28;7.77;;;4.90;;
60726;SDS011;46577;49.004;12.120;2023-09-08T12:45:55;5.70;;;4.33;;
60726;SDS011;46577;49.004;12.120;2023-09-08T12:48:21;4.40;;;4.00;;
60726;SDS011;46577;49.004;12.120;2023-09-08T12:50:47;4.57;;;3.97;;
60726;SDS011;46577;49.004;12.120;2023-09-08T12:53:14;5.20;;;4.40;;
60726;SDS011;46577;49.004;12.120;2023-09-08T12:55:40;6.20;;;4.80;;
60726;SDS011;46577;49.004;12.120;2023-09-08T12:58:06;4.90;;;4.40;;
60726;SDS011;46577;49.004;12.120;2023-09-08T13:00:32;7.50;;;4.93;;
60726;SDS011;46577;49.004;12.120;2023-09-08T13:02:58;7.00;;;4.80;;
60726;SDS011;46577;49.004;12.120;2023-09-08T13:05:23;7.10;;;4.03;;
60726;SDS011;46577;49.004;12.120;2023-09-08T13:07:49;5.87;;;4.50;;
60726;SDS011;46577;49.004;12.120;2023-09-08T13:10:15;13.33;;;4.27;;
60726;SDS011;46577;49.004;12.120;2023-09-08T13:12:41;7.27;;;4.83;;
60726;SDS011;46577;49.004;12.120;2023-09-08T13:15:08;8.60;;;4.53;;
60726;SDS011;46577;49.004;12.120;2023-09-08T13:17:34;8.40;;;4.50;;
60726;SDS011;46577;49.004;12.120;2023-09-08T13:20:00;7.53;;;4.63;;
60726;SDS011;46577;49.004;12.120;2023-09-08T13:22:26;6.17;;;4.80;;
60726;SDS011;46577;49.004;12.120;2023-09-08T13:24:52;8.87;;;4.63;;
60726;SDS011;46577;49.004;12.120;2023-09-08T13:27:18;5.17;;;4.60;;
60726;SDS011;46577;49.004;12.120;2023-09-08T13:29:44;4.90;;;4.40;;
60726;SDS011;46577;49.004;12.120;2023-09-08T13:32:10;10.03;;;4.90;;
60726;SDS011;46577;49.004;12.120;2023-09-08T13:34:36;4.40;;;4.00;;
60726;SDS011;46577;49.004;12.120;2023-09-08T13:37:03;12.80;;;4.83;;
60726;SDS011;46577;49.004;12.120;2023-09-08T13:39:29;4.77;;;4.27;;
60726;SDS011;46577;49.004;12.120;2023-09-08T13:41:56;5.27;;;4.50;;
60726;SDS011;46577;49.004;12.120;2023-09-08T13:44:23;6.30;;;4.07;;
60726;SDS011;46577;49.004;12.120;2023-09-08T13:46:49;6.87;;;4.27;;
60726;SDS011;46577;49.004;12.120;2023-09-08T13:49:15;8.10;;;4.13;;
60726;SDS011;46577;49.004;12.120;2023-09-08T13:51:42;5.63;;;4.53;;
60726;SDS011;46577;49.004;12.120;2023-09-08T13:54:08;6.80;;;4.63;;
60726;SDS011;46577;49.004;12.120;2023-09-08T13:56:35;6.10;;;4.40;;
60726;SDS011;46577;49.004;12.120;2023-09-08T13:59:01;7.00;;;5.00;;
60726;SDS011;46577;49.004;12.120;2023-09-08T14:01:27;7.37;;;4.80;;
60726;SDS011;46577;49.004;12.120;2023-09-08T14:03:54;6.10;;;4.13;;
60726;SDS011;46577;49.004;12.120;2023-09-08T14:06:21;11.33;;;4.43;;
60726;SDS011;46577;49.004;12.120;2023-09-08T14:08:47;4.63;;;4.17;;
60726;SDS011;46577;49.004;12.120;2023-09-08T14:11:13;7.40;;;4.73;;
60726;SDS011;46577;49.004;12.120;2023-09-08T14:13:39;5.23;;;4.63;;
60726;SDS011;46577;49.004;12.120;2023-09-08T14:16:05;7.90;;;4.83;;
60726;SDS011;46577;49.004;12.120;2023-09-08T14:18:31;4.77;;;4.27;;
60726;SDS011;46577;49.004;12.120;2023-09-08T14:20:57;6.57;;;5.17;;
60726;SDS011;46577;49.004;12.120;2023-09-08T14:23:23;5.80;;;4.57;;
60726;SDS011;46577;49.004;12.120;2023-09-08T14:25:49;6.00;;;4.83;;
60726;SDS011;46577;49.004;12.120;2023-09-08T14:28:15;6.10;;;4.77;;
60726;SDS011;46577;49.004;12.120;2023-09-08T14:30:42;7.57;;;5.07;;
60726;SDS011;46577;49.004;12.120;2023-09-08T14:33:09;9.00;;;5.07;;
60726;SDS011;46577;49.004;12.120;2023-09-08T14:35:35;5.50;;;4.60;;
60726;SDS011;46577;49.004;12.120;2023-09-08T14:38:01;8.03;;;4.67;;
60726;SDS011;46577;49.004;12.120;2023-09-08T14:40:27;6.87;;;4.50;;